Archival Weather

Aeroparque Jorge Newbery

Buenos Aires, Argentina (SABE)

Report from: Tuesday, September 19, 2023 9:00 PM -03
Current time: Monday, June 17, 2024 7:15 AM -03

Current weather – Weather history – Daily summaries
Weather forecast

Temperature14.0°C (57.2°F)
Dew point12.0°C (53.6°F)
Winds 15 kts (7.7 m/s, 17.3 mph) East-Southeast (120°)
Visibility6.2 mi. (10 km)
Clouds Ceiling: Broken clouds 1,400 ft. (427 m)
Overcast 4,200 ft. (1,280 m)
Altimeter30.15 in.Hg (1021 mB)
Relative humidity88 %
Density altitude-184 ft. (-56 m)
Remarks No significant changes expected in the next two hours
Flight conditions Marginal Visual Meteorological Conditions
Raw dataSABE 200000Z 12015KT 9999 BKN014 OVC042 14/12 Q1021 NOSIG RMK PP000
An error has occurred. This application may no longer respond until reloaded. Reload 🗙